sensor_id;sensor_type;location;lat;lon;timestamp;pressure;altitude;pressure_sealevel;temperature;humidity
36092;BME280;22147;52.388;13.390;2022-08-19T00:02:14;100425.84;;;19.88;100.00
36092;BME280;22147;52.388;13.390;2022-08-19T00:04:41;100425.44;;;19.93;100.00
36092;BME280;22147;52.388;13.390;2022-08-19T00:07:09;100417.38;;;19.91;100.00
36092;BME280;22147;52.388;13.390;2022-08-19T00:09:36;100411.75;;;19.88;100.00
36092;BME280;22147;52.388;13.390;2022-08-19T00:12:03;100409.34;;;19.90;100.00
36092;BME280;22147;52.388;13.390;2022-08-19T00:14:32;100409.34;;;19.93;100.00
36092;BME280;22147;52.388;13.390;2022-08-19T00:17:00;100404.91;;;20.00;100.00
36092;BME280;22147;52.388;13.390;2022-08-19T00:19:30;100408.97;;;19.99;100.00
36092;BME280;22147;52.388;13.390;2022-08-19T00:21:58;100418.63;;;20.01;100.00
36092;BME280;22147;52.388;13.390;2022-08-19T00:24:25;100414.19;;;19.97;100.00
36092;BME280;22147;52.388;13.390;2022-08-19T00:26:55;100404.53;;;19.94;100.00
36092;BME280;22147;52.388;13.390;2022-08-19T00:29:43;100402.53;;;19.98;100.00
36092;BME280;22147;52.388;13.390;2022-08-19T00:32:11;100398.47;;;19.96;100.00
36092;BME280;22147;52.388;13.390;2022-08-19T00:34:39;100389.59;;;19.93;100.00
36092;BME280;22147;52.388;13.390;2022-08-19T00:37:06;100390.00;;;19.96;100.00
36092;BME280;22147;52.388;13.390;2022-08-19T00:39:33;100386.78;;;19.93;100.00
36092;BME280;22147;52.388;13.390;2022-08-19T00:42:01;100382.38;;;19.92;100.00
36092;BME280;22147;52.388;13.390;2022-08-19T00:44:29;100367.88;;;19.90;100.00
36092;BME280;22147;52.388;13.390;2022-08-19T00:46:58;100377.53;;;19.86;100.00
36092;BME280;22147;52.388;13.390;2022-08-19T00:49:36;100377.94;;;19.88;100.00
36092;BME280;22147;52.388;13.390;2022-08-19T00:52:19;100389.22;;;19.88;100.00
36092;BME280;22147;52.388;13.390;2022-08-19T00:54:52;100385.16;;;19.85;100.00
36092;BME280;22147;52.388;13.390;2022-08-19T00:57:30;100375.53;;;19.79;100.00
36092;BME280;22147;52.388;13.390;2022-08-19T01:00:12;100366.66;;;19.84;100.00
36092;BME280;22147;52.388;13.390;2022-08-19T01:02:42;100377.13;;;19.84;100.00
36092;BME280;22147;52.388;13.390;2022-08-19T01:05:17;100369.47;;;19.84;100.00
36092;BME280;22147;52.388;13.390;2022-08-19T01:07:51;100369.88;;;19.83;100.00
36092;BME280;22147;52.388;13.390;2022-08-19T01:10:25;100372.28;;;19.91;100.00
36092;BME280;22147;52.388;13.390;2022-08-19T01:13:03;100394.84;;;19.77;100.00
36092;BME280;22147;52.388;13.390;2022-08-19T01:15:52;100409.69;;;19.74;100.00
36092;BME280;22147;52.388;13.390;2022-08-19T01:18:26;100418.94;;;19.75;100.00
36092;BME280;22147;52.388;13.390;2022-08-19T01:21:04;100409.31;;;19.76;100.00
36092;BME280;22147;52.388;13.390;2022-08-19T01:23:35;100406.84;;;19.67;100.00
36092;BME280;22147;52.388;13.390;2022-08-19T01:26:23;100398.34;;;19.60;100.00
36092;BME280;22147;52.388;13.390;2022-08-19T01:28:57;100393.16;;;19.58;100.00
36092;BME280;22147;52.388;13.390;2022-08-19T01:31:29;100385.47;;;19.51;100.00
36092;BME280;22147;52.388;13.390;2022-08-19T01:34:01;100379.84;;;19.51;100.00
36092;BME280;22147;52.388;13.390;2022-08-19T01:36:42;100381.44;;;19.45;100.00
36092;BME280;22147;52.388;13.390;2022-08-19T01:39:24;100391.47;;;19.43;100.00
36092;BME280;22147;52.388;13.390;2022-08-19T01:41:52;100387.84;;;19.42;100.00
36092;BME280;22147;52.388;13.390;2022-08-19T01:44:21;100382.25;;;19.46;100.00
36092;BME280;22147;52.388;13.390;2022-08-19T01:46:51;100383.00;;;19.36;100.00
36092;BME280;22147;52.388;13.390;2022-08-19T01:49:22;100386.22;;;19.34;100.00
36092;BME280;22147;52.388;13.390;2022-08-19T01:51:53;100403.56;;;19.43;100.00
36092;BME280;22147;52.388;13.390;2022-08-19T01:54:23;100421.59;;;19.39;100.00
36092;BME280;22147;52.388;13.390;2022-08-19T01:57:05;100416.75;;;19.32;100.00
36092;BME280;22147;52.388;13.390;2022-08-19T01:59:35;100402.31;;;19.37;100.00
36092;BME280;22147;52.388;13.390;2022-08-19T02:02:05;100397.09;;;19.39;100.00
36092;BME280;22147;52.388;13.390;2022-08-19T02:04:36;100384.59;;;19.33;100.00
36092;BME280;22147;52.388;13.390;2022-08-19T02:07:06;100351.59;;;19.26;100.00
36092;BME280;22147;52.388;13.390;2022-08-19T02:09:35;100349.19;;;19.32;100.00
36092;BME280;22147;52.388;13.390;2022-08-19T02:12:03;100345.16;;;19.29;100.00
36092;BME280;22147;52.388;13.390;2022-08-19T02:14:35;100345.97;;;19.23;100.00
36092;BME280;22147;52.388;13.390;2022-08-19T02:17:03;100333.06;;;19.22;100.00
36092;BME280;22147;52.388;13.390;2022-08-19T02:19:31;100321.81;;;19.18;100.00
36092;BME280;22147;52.388;13.390;2022-08-19T02:22:00;100318.59;;;19.16;100.00
36092;BME280;22147;52.388;13.390;2022-08-19T02:24:28;100305.75;;;19.22;100.00
36092;BME280;22147;52.388;13.390;2022-08-19T02:26:55;100298.50;;;19.21;100.00
36092;BME280;22147;52.388;13.390;2022-08-19T02:29:22;100296.88;;;19.24;100.00
36092;BME280;22147;52.388;13.390;2022-08-19T02:31:49;100292.06;;;19.21;100.00
36092;BME280;22147;52.388;13.390;2022-08-19T02:34:17;100290.84;;;19.22;100.00
36092;BME280;22147;52.388;13.390;2022-08-19T02:36:44;100292.06;;;19.21;100.00
36092;BME280;22147;52.388;13.390;2022-08-19T02:39:18;100289.69;;;19.26;100.00
36092;BME280;22147;52.388;13.390;2022-08-19T02:41:45;100288.03;;;19.22;100.00
36092;BME280;22147;52.388;13.390;2022-08-19T02:44:12;100296.47;;;19.22;100.00
36092;BME280;22147;52.388;13.390;2022-08-19T02:46:57;100298.88;;;19.20;100.00
36092;BME280;22147;52.388;13.390;2022-08-19T02:49:24;100298.09;;;19.19;100.00
36092;BME280;22147;52.388;13.390;2022-08-19T02:51:51;100319.81;;;19.19;100.00
36092;BME280;22147;52.388;13.390;2022-08-19T02:54:18;100331.88;;;19.19;100.00
36092;BME280;22147;52.388;13.390;2022-08-19T02:56:45;100324.63;;;19.22;100.00
36092;BME280;22147;52.388;13.390;2022-08-19T02:59:13;100313.75;;;19.17;100.00
36092;BME280;22147;52.388;13.390;2022-08-19T03:01:41;100319.38;;;19.13;100.00
36092;BME280;22147;52.388;13.390;2022-08-19T03:04:14;100306.50;;;19.08;100.00
36092;BME280;22147;52.388;13.390;2022-08-19T03:06:46;100318.56;;;19.09;100.00
36092;BME280;22147;52.388;13.390;2022-08-19T03:09:14;100323.78;;;19.07;100.00
36092;BME280;22147;52.388;13.390;2022-08-19T03:11:43;100322.97;;;19.06;100.00
36092;BME280;22147;52.388;13.390;2022-08-19T03:14:10;100320.97;;;19.03;100.00
36092;BME280;22147;52.388;13.390;2022-08-19T03:16:50;100313.72;;;19.02;100.00
36092;BME280;22147;52.388;13.390;2022-08-19T03:19:20;100310.88;;;19.02;100.00
36092;BME280;22147;52.388;13.390;2022-08-19T03:21:49;100318.56;;;19.09;100.00
36092;BME280;22147;52.388;13.390;2022-08-19T03:24:20;100314.94;;;19.01;100.00
36092;BME280;22147;52.388;13.390;2022-08-19T03:26:52;100317.31;;;18.99;100.00
36092;BME280;22147;52.388;13.390;2022-08-19T03:29:27;100326.59;;;19.03;100.00
36092;BME280;22147;52.388;13.390;2022-08-19T03:32:05;100310.13;;;19.05;100.00
36092;BME280;22147;52.388;13.390;2022-08-19T03:34:52;100310.13;;;19.05;100.00
36092;BME280;22147;52.388;13.390;2022-08-19T03:37:19;100306.09;;;19.03;100.00
36092;BME280;22147;52.388;13.390;2022-08-19T03:39:47;100292.81;;;19.00;100.00
36092;BME280;22147;52.388;13.390;2022-08-19T03:42:14;100297.22;;;18.97;100.00
36092;BME280;22147;52.388;13.390;2022-08-19T03:45:04;100299.63;;;18.95;100.00
36092;BME280;22147;52.388;13.390;2022-08-19T03:47:33;100304.44;;;18.95;100.00
36092;BME280;22147;52.388;13.390;2022-08-19T03:50:00;100303.63;;;18.94;100.00
36092;BME280;22147;52.388;13.390;2022-08-19T03:52:28;100286.75;;;18.98;100.00
36092;BME280;22147;52.388;13.390;2022-08-19T03:54:55;100296.41;;;18.97;100.00
36092;BME280;22147;52.388;13.390;2022-08-19T03:57:22;100294.38;;;18.94;100.00
36092;BME280;22147;52.388;13.390;2022-08-19T03:59:58;100294.41;;;18.97;100.00
36092;BME280;22147;52.388;13.390;2022-08-19T04:02:39;100307.69;;;18.97;100.00
36092;BME280;22147;52.388;13.390;2022-08-19T04:05:08;100310.91;;;18.99;100.00
36092;BME280;22147;52.388;13.390;2022-08-19T04:07:35;100312.91;;;19.02;100.00
36092;BME280;22147;52.388;13.390;2022-08-19T04:10:03;100333.81;;;19.01;100.00
36092;BME280;22147;52.388;13.390;2022-08-19T04:12:31;100333.00;;;19.04;100.00
36092;BME280;22147;52.388;13.390;2022-08-19T04:14:59;100333.00;;;19.04;100.00
36092;BME280;22147;52.388;13.390;2022-08-19T04:17:26;100326.59;;;19.07;100.00
36092;BME280;22147;52.388;13.390;2022-08-19T04:19:53;100326.59;;;19.07;100.00
36092;BME280;22147;52.388;13.390;2022-08-19T04:22:20;100340.25;;;19.08;100.00
36092;BME280;22147;52.388;13.390;2022-08-19T04:24:47;100339.84;;;19.06;100.00
36092;BME280;22147;52.388;13.390;2022-08-19T04:27:14;100347.53;;;19.09;100.00
36092;BME280;22147;52.388;13.390;2022-08-19T04:29:43;100341.06;;;19.09;100.00
36092;BME280;22147;52.388;13.390;2022-08-19T04:32:10;100332.66;;;19.12;100.00
36092;BME280;22147;52.388;13.390;2022-08-19T04:34:37;100326.63;;;19.14;100.00
36092;BME280;22147;52.388;13.390;2022-08-19T04:37:26;100331.47;;;19.14;100.00
36092;BME280;22147;52.388;13.390;2022-08-19T04:40:01;100318.59;;;19.20;100.00
36092;BME280;22147;52.388;13.390;2022-08-19T04:42:48;100314.19;;;19.26;100.00
36092;BME280;22147;52.388;13.390;2022-08-19T04:45:16;100323.88;;;19.36;100.00
36092;BME280;22147;52.388;13.390;2022-08-19T04:47:44;100335.16;;;19.39;100.00
36092;BME280;22147;52.388;13.390;2022-08-19T04:50:25;100330.34;;;19.43;100.00
36092;BME280;22147;52.388;13.390;2022-08-19T04:52:53;100328.75;;;19.49;100.00
36092;BME280;22147;52.388;13.390;2022-08-19T04:55:22;100328.75;;;19.53;100.00
36092;BME280;22147;52.388;13.390;2022-08-19T04:57:54;100326.38;;;19.62;100.00
36092;BME280;22147;52.388;13.390;2022-08-19T05:00:22;100321.13;;;19.68;100.00
36092;BME280;22147;52.388;13.390;2022-08-19T05:02:50;100321.19;;;19.75;100.00
36092;BME280;22147;52.388;13.390;2022-08-19T05:05:18;100310.31;;;19.81;100.00
36092;BME280;22147;52.388;13.390;2022-08-19T05:07:46;100317.53;;;19.85;100.00
36092;BME280;22147;52.388;13.390;2022-08-19T05:10:14;100301.84;;;19.91;100.00
36092;BME280;22147;52.388;13.390;2022-08-19T05:12:41;100310.31;;;19.99;100.00
36092;BME280;22147;52.388;13.390;2022-08-19T05:15:09;100296.63;;;19.97;100.00
36092;BME280;22147;52.388;13.390;2022-08-19T05:17:36;100292.22;;;19.96;100.00
36092;BME280;22147;52.388;13.390;2022-08-19T05:20:08;100295.00;;;20.10;100.00
36092;BME280;22147;52.388;13.390;2022-08-19T05:23:06;100291.78;;;20.19;100.00
36092;BME280;22147;52.388;13.390;2022-08-19T05:25:46;100299.00;;;20.38;100.00
36092;BME280;22147;52.388;13.390;2022-08-19T05:28:13;100296.59;;;20.47;100.00
36092;BME280;22147;52.388;13.390;2022-08-19T05:30:40;100303.41;;;20.50;100.00
36092;BME280;22147;52.388;13.390;2022-08-19T05:33:13;100299.41;;;20.58;100.00
36092;BME280;22147;52.388;13.390;2022-08-19T05:35:41;100302.19;;;20.54;100.00
36092;BME280;22147;52.388;13.390;2022-08-19T05:38:08;100297.78;;;20.46;100.00
36092;BME280;22147;52.388;13.390;2022-08-19T05:40:36;100299.00;;;20.38;100.00
36092;BME280;22147;52.388;13.390;2022-08-19T05:43:07;100302.63;;;20.31;100.00
36092;BME280;22147;52.388;13.390;2022-08-19T05:45:40;100312.31;;;20.23;100.00
36092;BME280;22147;52.388;13.390;2022-08-19T05:48:11;100312.31;;;20.30;100.00
36092;BME280;22147;52.388;13.390;2022-08-19T05:50:41;100318.34;;;20.29;100.00
36092;BME280;22147;52.388;13.390;2022-08-19T05:53:08;100322.34;;;20.46;100.00
36092;BME280;22147;52.388;13.390;2022-08-19T05:55:36;100321.13;;;20.50;100.00
36092;BME280;22147;52.388;13.390;2022-08-19T05:58:05;100328.00;;;20.49;100.00
36092;BME280;22147;52.388;13.390;2022-08-19T06:00:36;100332.03;;;20.56;100.00
36092;BME280;22147;52.388;13.390;2022-08-19T06:03:04;100332.81;;;20.56;100.00
36092;BME280;22147;52.388;13.390;2022-08-19T06:05:39;100325.94;;;20.57;100.00
36092;BME280;22147;52.388;13.390;2022-08-19T06:08:18;100329.19;;;20.56;100.00
36092;BME280;22147;52.388;13.390;2022-08-19T06:13:45;100315.53;;;20.58;100.00
36092;BME280;22147;52.388;13.390;2022-08-19T06:16:21;100315.50;;;20.61;100.00
36092;BME280;22147;52.388;13.390;2022-08-19T06:18:51;100312.69;;;20.50;100.00
36092;BME280;22147;52.388;13.390;2022-08-19T06:21:26;100325.59;;;20.59;100.00
36092;BME280;22147;52.388;13.390;2022-08-19T06:23:56;100320.31;;;20.75;100.00
36092;BME280;22147;52.388;13.390;2022-08-19T06:26:24;100319.50;;;20.67;100.00
36092;BME280;22147;52.388;13.390;2022-08-19T06:28:52;100327.56;;;20.69;100.00
36092;BME280;22147;52.388;13.390;2022-08-19T06:31:24;100332.38;;;20.79;100.00
36092;BME280;22147;52.388;13.390;2022-08-19T06:33:53;100342.81;;;20.93;100.00
36092;BME280;22147;52.388;13.390;2022-08-19T06:36:27;100342.78;;;21.04;100.00
36092;BME280;22147;52.388;13.390;2022-08-19T06:38:58;100362.97;;;21.02;100.00
36092;BME280;22147;52.388;13.390;2022-08-19T06:41:30;100368.63;;;20.99;100.00
36092;BME280;22147;52.388;13.390;2022-08-19T06:44:05;100366.59;;;21.03;100.00
36092;BME280;22147;52.388;13.390;2022-08-19T06:46:41;100374.28;;;20.91;100.00
36092;BME280;22147;52.388;13.390;2022-08-19T06:49:11;100372.66;;;20.87;100.00
36092;BME280;22147;52.388;13.390;2022-08-19T06:51:47;100370.63;;;20.94;100.00
36092;BME280;22147;52.388;13.390;2022-08-19T06:54:19;100371.41;;;21.06;100.00
36092;BME280;22147;52.388;13.390;2022-08-19T06:56:46;100365.72;;;21.20;100.00
36092;BME280;22147;52.388;13.390;2022-08-19T06:59:21;100365.66;;;21.31;100.00
36092;BME280;22147;52.388;13.390;2022-08-19T07:01:56;100366.44;;;21.39;100.00
36092;BME280;22147;52.388;13.390;2022-08-19T07:04:30;100361.16;;;21.48;100.00
36092;BME280;22147;52.388;13.390;2022-08-19T07:07:05;100359.09;;;21.59;100.00
36092;BME280;22147;52.388;13.390;2022-08-19T07:09:49;100350.56;;;21.70;100.00
36092;BME280;22147;52.388;13.390;2022-08-19T07:12:30;100353.00;;;21.64;100.00
36092;BME280;22147;52.388;13.390;2022-08-19T07:15:06;100369.94;;;21.68;100.00
36092;BME280;22147;52.388;13.390;2022-08-19T07:17:37;100374.03;;;21.56;100.00
36092;BME280;22147;52.388;13.390;2022-08-19T07:20:09;100373.56;;;21.72;100.00
36092;BME280;22147;52.388;13.390;2022-08-19T07:22:38;100382.84;;;21.69;100.00
36092;BME280;22147;52.388;13.390;2022-08-19T07:25:09;100387.63;;;21.79;100.00
36092;BME280;22147;52.388;13.390;2022-08-19T07:27:37;100395.25;;;21.86;100.00
36092;BME280;22147;52.388;13.390;2022-08-19T07:30:07;100392.44;;;21.86;100.00
36092;BME280;22147;52.388;13.390;2022-08-19T07:32:39;100394.84;;;21.87;100.00
36092;BME280;22147;52.388;13.390;2022-08-19T07:35:07;100389.91;;;21.99;100.00
36092;BME280;22147;52.388;13.390;2022-08-19T07:37:36;100389.84;;;22.09;100.00
36092;BME280;22147;52.388;13.390;2022-08-19T07:40:07;100396.66;;;22.19;100.00
36092;BME280;22147;52.388;13.390;2022-08-19T07:42:34;100392.97;;;22.26;100.00
36092;BME280;22147;52.388;13.390;2022-08-19T07:45:03;100397.78;;;22.32;100.00
36092;BME280;22147;52.388;13.390;2022-08-19T07:47:32;100406.16;;;22.43;100.00
36092;BME280;22147;52.388;13.390;2022-08-19T07:50:18;100406.25;;;22.32;100.00
36092;BME280;22147;52.388;13.390;2022-08-19T07:52:48;100400.97;;;22.34;100.00
36092;BME280;22147;52.388;13.390;2022-08-19T07:55:22;100403.78;;;22.42;100.00
36092;BME280;22147;52.388;13.390;2022-08-19T07:58:12;100413.84;;;22.46;100.00
36092;BME280;22147;52.388;13.390;2022-08-19T08:00:46;100422.31;;;22.46;100.00
36092;BME280;22147;52.388;13.390;2022-08-19T08:03:18;100415.81;;;22.49;100.00
36092;BME280;22147;52.388;13.390;2022-08-19T08:05:47;100420.25;;;22.50;100.00
36092;BME280;22147;52.388;13.390;2022-08-19T08:08:33;100427.19;;;22.46;100.00
36092;BME280;22147;52.388;13.390;2022-08-19T08:11:20;100430.50;;;22.33;100.00
36092;BME280;22147;52.388;13.390;2022-08-19T08:13:49;100432.50;;;22.36;100.00
36092;BME280;22147;52.388;13.390;2022-08-19T08:16:28;100439.00;;;22.30;100.00
36092;BME280;22147;52.388;13.390;2022-08-19T08:19:00;100442.63;;;22.30;100.00
36092;BME280;22147;52.388;13.390;2022-08-19T08:21:27;100444.72;;;22.23;100.00
36092;BME280;22147;52.388;13.390;2022-08-19T08:23:54;100436.19;;;22.26;100.00
36092;BME280;22147;52.388;13.390;2022-08-19T08:26:23;100445.47;;;22.30;100.00
36092;BME280;22147;52.388;13.390;2022-08-19T08:28:53;100438.22;;;22.22;100.00
36092;BME280;22147;52.388;13.390;2022-08-19T08:31:20;100439.00;;;22.33;100.00
36092;BME280;22147;52.388;13.390;2022-08-19T08:33:47;100443.88;;;22.26;100.00
36092;BME280;22147;52.388;13.390;2022-08-19T08:36:16;100445.44;;;22.34;100.00
36092;BME280;22147;52.388;13.390;2022-08-19T08:38:45;100441.44;;;22.31;100.00
36092;BME280;22147;52.388;13.390;2022-08-19T08:41:35;100443.78;;;22.40;100.00
36092;BME280;22147;52.388;13.390;2022-08-19T08:44:18;100449.84;;;22.39;100.00
36092;BME280;22147;52.388;13.390;2022-08-19T08:47:00;100446.53;;;22.47;100.00
36092;BME280;22147;52.388;13.390;2022-08-19T08:49:56;100449.81;;;22.46;100.00
36092;BME280;22147;52.388;13.390;2022-08-19T08:52:36;100453.84;;;22.45;100.00
36092;BME280;22147;52.388;13.390;2022-08-19T08:55:24;100444.66;;;22.33;100.00
36092;BME280;22147;52.388;13.390;2022-08-19T08:58:42;100445.53;;;22.23;100.00
36092;BME280;22147;52.388;13.390;2022-08-19T09:01:27;100456.44;;;22.25;100.00
36092;BME280;22147;52.388;13.390;2022-08-19T09:03:56;100447.13;;;22.21;100.00
36092;BME280;22147;52.388;13.390;2022-08-19T09:10:32;100452.28;;;22.40;100.00
36092;BME280;22147;52.388;13.390;2022-08-19T09:13:23;100453.84;;;22.45;100.00
36092;BME280;22147;52.388;13.390;2022-08-19T09:16:09;100450.22;;;22.44;100.00
36092;BME280;22147;52.388;13.390;2022-08-19T09:18:54;100446.28;;;22.31;100.00
36092;BME280;22147;52.388;13.390;2022-08-19T09:21:25;100449.16;;;22.24;100.00
36092;BME280;22147;52.388;13.390;2022-08-19T09:23:58;100440.31;;;22.14;100.00
36092;BME280;22147;52.388;13.390;2022-08-19T09:26:29;100441.09;;;22.19;100.00
36092;BME280;22147;52.388;13.390;2022-08-19T09:29:18;100437.88;;;22.16;100.00
36092;BME280;22147;52.388;13.390;2022-08-19T09:31:48;100444.28;;;22.28;100.00
36092;BME280;22147;52.388;13.390;2022-08-19T09:34:16;100426.69;;;22.54;100.00
36092;BME280;22147;52.388;13.390;2022-08-19T09:36:49;100434.25;;;22.68;100.00
36092;BME280;22147;52.388;13.390;2022-08-19T09:39:21;100436.16;;;22.82;100.00
36092;BME280;22147;52.388;13.390;2022-08-19T09:41:48;100442.53;;;22.90;100.00
36092;BME280;22147;52.388;13.390;2022-08-19T09:44:17;100436.56;;;22.77;100.00
36092;BME280;22147;52.388;13.390;2022-08-19T09:46:47;100434.25;;;22.68;100.00
36092;BME280;22147;52.388;13.390;2022-08-19T09:49:17;100435.41;;;22.71;100.00
36092;BME280;22147;52.388;13.390;2022-08-19T09:51:51;100434.91;;;22.83;100.00
36092;BME280;22147;52.388;13.390;2022-08-19T09:54:22;100434.13;;;22.79;100.00
36092;BME280;22147;52.388;13.390;2022-08-19T09:56:53;100429.31;;;22.76;100.00
36092;BME280;22147;52.388;13.390;2022-08-19T09:59:21;100429.44;;;22.62;100.00
36092;BME280;22147;52.388;13.390;2022-08-19T10:01:49;100429.91;;;22.56;100.00
36092;BME280;22147;52.388;13.390;2022-08-19T10:04:20;100433.13;;;22.59;100.00
36092;BME280;22147;52.388;13.390;2022-08-19T10:06:50;100431.81;;;22.67;100.00
36092;BME280;22147;52.388;13.390;2022-08-19T10:09:20;100429.72;;;22.78;100.00
36092;BME280;22147;52.388;13.390;2022-08-19T10:12:03;100428.06;;;22.81;100.00
36092;BME280;22147;52.388;13.390;2022-08-19T10:14:37;100429.09;;;23.01;100.00
36092;BME280;22147;52.388;13.390;2022-08-19T10:17:04;100422.59;;;23.04;100.00
36092;BME280;22147;52.388;13.390;2022-08-19T10:19:47;100432.31;;;23.03;100.00
36092;BME280;22147;52.388;13.390;2022-08-19T10:22:23;100437.19;;;22.99;100.00
36092;BME280;22147;52.388;13.390;2022-08-19T10:24:52;100443.38;;;22.87;100.00
36092;BME280;22147;52.388;13.390;2022-08-19T10:27:19;100438.00;;;22.54;100.00
36092;BME280;22147;52.388;13.390;2022-08-19T10:29:47;100450.78;;;22.25;100.00
36092;BME280;22147;52.388;13.390;2022-08-19T10:32:14;100448.34;;;22.16;100.00
36092;BME280;22147;52.388;13.390;2022-08-19T10:34:42;100439.59;;;22.00;100.00
36092;BME280;22147;52.388;13.390;2022-08-19T10:37:16;100446.47;;;21.99;100.00
36092;BME280;22147;52.388;13.390;2022-08-19T10:39:54;100436.72;;;22.03;100.00
36092;BME280;22147;52.388;13.390;2022-08-19T10:42:22;100439.16;;;22.01;100.00
36092;BME280;22147;52.388;13.390;2022-08-19T10:44:49;100436.78;;;21.96;100.00
36092;BME280;22147;52.388;13.390;2022-08-19T10:47:17;100433.19;;;21.92;100.00
36092;BME280;22147;52.388;13.390;2022-08-19T10:49:55;100442.50;;;21.85;100.00
36092;BME280;22147;52.388;13.390;2022-08-19T10:52:47;100434.00;;;21.89;100.00
36092;BME280;22147;52.388;13.390;2022-08-19T10:55:21;100433.13;;;21.99;100.00
36092;BME280;22147;52.388;13.390;2022-08-19T10:58:18;100439.94;;;22.05;100.00
36092;BME280;22147;52.388;13.390;2022-08-19T11:00:58;100441.97;;;22.05;100.00
36092;BME280;22147;52.388;13.390;2022-08-19T11:03:26;100441.28;;;21.86;100.00
36092;BME280;22147;52.388;13.390;2022-08-19T11:06:07;100452.19;;;21.88;100.00
36092;BME280;22147;52.388;13.390;2022-08-19T11:08:36;100441.72;;;21.85;100.00
36092;BME280;22147;52.388;13.390;2022-08-19T11:11:08;100440.88;;;21.88;100.00
36092;BME280;22147;52.388;13.390;2022-08-19T11:13:41;100452.19;;;21.88;100.00
36092;BME280;22147;52.388;13.390;2022-08-19T11:16:20;100450.16;;;21.88;100.00
36092;BME280;22147;52.388;13.390;2022-08-19T11:18:54;100454.22;;;21.87;100.00
36092;BME280;22147;52.388;13.390;2022-08-19T11:21:32;100451.78;;;21.86;100.00
36092;BME280;22147;52.388;13.390;2022-08-19T11:24:09;100452.97;;;21.88;100.00
36092;BME280;22147;52.388;13.390;2022-08-19T11:26:41;100451.78;;;21.86;100.00
36092;BME280;22147;52.388;13.390;2022-08-19T11:29:12;100449.34;;;21.88;100.00
36092;BME280;22147;52.388;13.390;2022-08-19T11:31:45;100451.31;;;21.98;100.00
36092;BME280;22147;52.388;13.390;2022-08-19T11:34:22;100445.72;;;21.91;100.00
36092;BME280;22147;52.388;13.390;2022-08-19T11:36:55;100451.72;;;22.00;100.00
36092;BME280;22147;52.388;13.390;2022-08-19T11:39:30;100453.69;;;22.07;100.00
36092;BME280;22147;52.388;13.390;2022-08-19T11:42:00;100458.16;;;22.04;100.00
36092;BME280;22147;52.388;13.390;2022-08-19T11:44:51;100461.38;;;22.03;100.00
36092;BME280;22147;52.388;13.390;2022-08-19T11:47:19;100458.94;;;22.05;100.00
36092;BME280;22147;52.388;13.390;2022-08-19T11:49:47;100471.03;;;22.09;100.00
36092;BME280;22147;52.388;13.390;2022-08-19T11:52:14;100474.25;;;22.11;100.00
36092;BME280;22147;52.388;13.390;2022-08-19T11:54:41;100481.53;;;22.12;100.00
36092;BME280;22147;52.388;13.390;2022-08-19T11:57:08;100474.66;;;22.13;100.00
36092;BME280;22147;52.388;13.390;2022-08-19T11:59:35;100479.06;;;22.25;100.00
36092;BME280;22147;52.388;13.390;2022-08-19T12:02:02;100482.28;;;22.20;100.00
36092;BME280;22147;52.388;13.390;2022-08-19T12:04:30;100477.44;;;22.24;100.00
36092;BME280;22147;52.388;13.390;2022-08-19T12:06:57;100477.41;;;22.31;100.00
36092;BME280;22147;52.388;13.390;2022-08-19T12:09:24;100483.06;;;22.31;100.00
36092;BME280;22147;52.388;13.390;2022-08-19T12:11:56;100480.63;;;22.22;100.00
36092;BME280;22147;52.388;13.390;2022-08-19T12:14:23;100480.63;;;22.22;100.00
36092;BME280;22147;52.388;13.390;2022-08-19T12:16:50;100485.88;;;22.31;100.00
36092;BME280;22147;52.388;13.390;2022-08-19T12:19:19;100487.81;;;22.41;100.00
36092;BME280;22147;52.388;13.390;2022-08-19T12:21:50;100490.25;;;22.39;100.00
36092;BME280;22147;52.388;13.390;2022-08-19T12:24:19;100495.47;;;22.44;100.00
36092;BME280;22147;52.388;13.390;2022-08-19T12:26:50;100487.63;;;22.66;100.00
36092;BME280;22147;52.388;13.390;2022-08-19T12:29:20;100496.47;;;22.75;100.00
36092;BME280;22147;52.388;13.390;2022-08-19T12:31:50;100496.13;;;22.66;100.00
36092;BME280;22147;52.388;13.390;2022-08-19T12:34:18;100504.28;;;22.53;100.00
36092;BME280;22147;52.388;13.390;2022-08-19T12:36:46;100498.25;;;22.48;100.00
36092;BME280;22147;52.388;13.390;2022-08-19T12:39:16;100490.94;;;22.58;100.00
36092;BME280;22147;52.388;13.390;2022-08-19T12:41:43;100491.34;;;22.56;100.00
36092;BME280;22147;52.388;13.390;2022-08-19T12:44:22;100488.47;;;22.63;100.00
36092;BME280;22147;52.388;13.390;2022-08-19T12:46:56;100491.63;;;22.72;100.00
36092;BME280;22147;52.388;13.390;2022-08-19T12:49:23;100482.72;;;22.74;100.00
36092;BME280;22147;52.388;13.390;2022-08-19T12:52:12;100477.72;;;22.89;100.00
36092;BME280;22147;52.388;13.390;2022-08-19T12:54:48;100483.78;;;22.91;100.00
36092;BME280;22147;52.388;13.390;2022-08-19T12:57:26;100486.59;;;22.94;100.00
36092;BME280;22147;52.388;13.390;2022-08-19T13:00:15;100489.06;;;22.89;100.00
36092;BME280;22147;52.388;13.390;2022-08-19T13:02:46;100509.28;;;22.87;100.00
36092;BME280;22147;52.388;13.390;2022-08-19T13:05:31;100513.38;;;22.83;100.00